Time;durP1;ratioP1;P1;durP2;ratioP2;P2;SDS_P1;SDS_P2;PMS_P1;PMS_P2;Temp;Humidity;BMP_temperature;BMP_pressure;BME280_temperature;BME280_humidity;BME280_pressure;Samples;Min_cycle;Max_cycle;Signal;HPM_P1;HPM_P2
2023/02/03 00:00:09;;;;;;;;;;;5.50;99.90;;;;;;6216600;23;19982;-77
2023/02/03 00:02:35;;;;;;;;;;;5.40;99.90;;;;;;6214390;23;19900;-77
2023/02/03 00:05:00;;;;;;;;;;;5.40;99.90;;;;;;6216108;23;19923;-77
2023/02/03 00:07:26;;;;;;;;;;;5.40;99.90;;;;;;6216200;23;20252;-77
2023/02/03 00:09:52;;;;;;;;;;;5.30;99.90;;;;;;6214775;23;20228;-76
2023/02/03 00:12:17;;;;;;;;;;;5.20;99.90;;;;;;6214587;23;19906;-76
2023/02/03 00:14:43;;;;;;;;;;;5.20;99.90;;;;;;6216050;23;19931;-77
2023/02/03 00:17:08;;;;;;;;;;;5.20;99.90;;;;;;6215974;23;19907;-77
2023/02/03 00:19:34;;;;;;;;;;;5.10;99.90;;;;;;6216309;23;19907;-77
2023/02/03 00:21:59;;;;;;;;;;;5.10;99.90;;;;;;6215853;23;19900;-77
2023/02/03 00:24:25;;;;;;;;;;;5.10;99.90;;;;;;6214583;23;19900;-77
2023/02/03 00:26:50;;;;;;;;;;;4.90;99.90;;;;;;6214616;23;19911;-77
2023/02/03 00:29:17;;;;;;;;;;;4.90;99.90;;;;;;6214407;23;19999;-76
2023/02/03 00:31:42;;;;;;;;;;;4.90;99.90;;;;;;6214104;23;19949;-77
2023/02/03 00:34:08;;;;;;;;;;;4.90;99.90;;;;;;6214277;23;19986;-77
2023/02/03 00:36:34;;;;;;;;;;;4.80;99.90;;;;;;6216248;23;19978;-77
2023/02/03 00:39:00;;;;;;;;;;;4.80;99.90;;;;;;6216377;23;19907;-77
2023/02/03 00:41:27;;;;;;;;;;;4.80;99.90;;;;;;6216295;23;19900;-77
2023/02/03 00:43:53;;;;;;;;;;;4.70;99.90;;;;;;6216120;23;20230;-77
2023/02/03 00:46:18;;;;;;;;;;;4.60;99.90;;;;;;6214569;23;19900;-77
2023/02/03 00:48:44;;;;;;;;;;;4.70;99.90;;;;;;6214505;23;19946;-77
2023/02/03 00:51:09;;;;;;;;;;;4.70;99.90;;;;;;6214330;23;20197;-77
2023/02/03 00:53:35;;;;;;;;;;;4.70;99.90;;;;;;6214088;23;19904;-77
2023/02/03 00:56:00;;;;;;;;;;;4.70;99.90;;;;;;6214125;23;19915;-78
2023/02/03 00:58:26;;;;;;;;;;;4.80;99.90;;;;;;6214336;23;19899;-77
2023/02/03 01:00:53;;;;;;;;;;;4.70;99.90;;;;;;6214120;23;19900;-77
2023/02/03 01:03:18;;;;;;;;;;;4.60;99.90;;;;;;6215835;23;19903;-77
2023/02/03 01:05:44;;;;;;;;;;;4.60;99.90;;;;;;6215961;23;19908;-77
2023/02/03 01:08:09;;;;;;;;;;;4.70;99.90;;;;;;6214399;23;19900;-77
2023/02/03 01:10:36;;;;;;;;;;;4.70;99.90;;;;;;6216018;23;19923;-77
2023/02/03 01:13:02;;;;;;;;;;;4.70;99.90;;;;;;6214427;23;19906;-77
2023/02/03 01:15:27;;;;;;;;;;;4.70;99.90;;;;;;6214168;23;19986;-77
2023/02/03 01:17:53;;;;;;;;;;;4.60;99.90;;;;;;6214281;23;19983;-77
2023/02/03 01:20:20;;;;;;;;;;;4.50;99.90;;;;;;6214341;23;19900;-76
2023/02/03 01:22:46;;;;;;;;;;;4.50;99.90;;;;;;6215678;23;19899;-77
2023/02/03 01:25:11;;;;;;;;;;;4.50;99.90;;;;;;6216010;23;20223;-77
2023/02/03 01:27:37;;;;;;;;;;;4.60;99.90;;;;;;6214138;23;19958;-77
2023/02/03 01:30:08;;;;;;;;;;;4.70;99.90;;;;;;6213675;23;19900;-77
2023/02/03 01:32:34;;;;;;;;;;;4.60;99.90;;;;;;6213276;23;20296;-77
2023/02/03 01:35:00;;;;;;;;;;;4.40;99.90;;;;;;6213217;23;19910;-77
2023/02/03 01:37:25;;;;;;;;;;;4.40;99.90;;;;;;6213424;23;20343;-77
2023/02/03 01:39:51;;;;;;;;;;;4.40;99.90;;;;;;6213098;23;19900;-77
2023/02/03 01:42:20;;;;;;;;;;;4.40;99.90;;;;;;6213781;23;19907;-77
2023/02/03 01:44:54;;;;;;;;;;;4.50;99.90;;;;;;6213848;23;19907;-77
2023/02/03 01:47:20;;;;;;;;;;;4.50;99.90;;;;;;6213552;23;19900;-77
2023/02/03 01:49:48;;;;;;;;;;;4.60;99.90;;;;;;6214222;23;19926;-77
2023/02/03 01:52:14;;;;;;;;;;;4.60;99.90;;;;;;6215840;23;19987;-77
2023/02/03 01:54:42;;;;;;;;;;;4.60;99.90;;;;;;6214064;23;19939;-77
2023/02/03 01:57:31;;;;;;;;;;;4.60;99.90;;;;;;6215690;23;19907;-76
2023/02/03 01:59:57;;;;;;;;;;;4.50;99.90;;;;;;6215661;23;20478;-76
2023/02/03 02:02:23;;;;;;;;;;;4.30;99.90;;;;;;6215538;23;19900;-77
2023/02/03 02:04:53;;;;;;;;;;;4.30;99.90;;;;;;6215482;23;19978;-77
2023/02/03 02:07:18;;;;;;;;;;;4.30;99.90;;;;;;6215570;23;20444;-77
2023/02/03 02:09:44;;;;;;;;;;;4.40;99.90;;;;;;6214361;23;19954;-77
2023/02/03 02:12:10;;;;;;;;;;;4.40;99.90;;;;;;6215196;23;19900;-77
2023/02/03 02:14:36;;;;;;;;;;;4.40;99.90;;;;;;6217244;23;19953;-77
2023/02/03 02:17:11;;;;;;;;;;;4.40;99.90;;;;;;6215935;23;19947;-77
2023/02/03 02:20:09;;;;;;;;;;;4.50;99.90;;;;;;6217624;23;19900;-77
2023/02/03 02:22:53;;;;;;;;;;;4.50;99.90;;;;;;6150844;23;19900;-77
2023/02/03 02:25:37;;;;;;;;;;;4.40;99.90;;;;;;6215932;23;19900;-77
2023/02/03 02:28:22;;;;;;;;;;;4.40;99.90;;;;;;6215697;23;19906;-76
2023/02/03 02:31:06;;;;;;;;;;;4.30;99.90;;;;;;6217337;23;19904;-76
2023/02/03 02:33:50;;;;;;;;;;;4.40;99.90;;;;;;6217314;23;19899;-77
2023/02/03 02:36:16;;;;;;;;;;;4.20;99.90;;;;;;6217054;23;20011;-77
2023/02/03 02:38:41;;;;;;;;;;;4.10;99.90;;;;;;6217210;23;19900;-77
2023/02/03 02:41:10;;;;;;;;;;;4.10;99.90;;;;;;6217186;23;20288;-77
2023/02/03 02:43:55;;;;;;;;;;;4.10;99.90;;;;;;6215350;23;19923;-77
2023/02/03 02:46:26;;;;;;;;;;;4.10;99.90;;;;;;6217289;23;19900;-77
2023/02/03 02:48:56;;;;;;;;;;;4.10;99.90;;;;;;6215564;23;20229;-77
2023/02/03 02:51:22;;;;;;;;;;;4.10;99.90;;;;;;6215431;23;19954;-77
2023/02/03 02:53:53;;;;;;;;;;;4.10;99.90;;;;;;6215641;23;19978;-77
2023/02/03 02:56:19;;;;;;;;;;;4.20;99.90;;;;;;6215407;23;19904;-77
2023/02/03 02:58:47;;;;;;;;;;;4.20;99.90;;;;;;6215477;23;20347;-77
2023/02/03 03:01:14;;;;;;;;;;;4.20;99.90;;;;;;6215598;23;20240;-77
2023/02/03 03:03:43;;;;;;;;;;;4.30;99.90;;;;;;6215122;23;19908;-77
2023/02/03 03:06:11;;;;;;;;;;;4.10;99.90;;;;;;6215591;23;19962;-77
2023/02/03 03:08:40;;;;;;;;;;;4.00;99.90;;;;;;6215585;23;20291;-77
2023/02/03 03:11:06;;;;;;;;;;;4.00;99.90;;;;;;6216880;23;20343;-77
2023/02/03 03:13:36;;;;;;;;;;;4.10;99.90;;;;;;6215310;23;19935;-76
2023/02/03 03:16:04;;;;;;;;;;;4.10;99.90;;;;;;6217123;23;20308;-77
2023/02/03 03:18:33;;;;;;;;;;;4.20;99.90;;;;;;6216812;23;19906;-78
2023/02/03 03:21:05;;;;;;;;;;;4.20;99.90;;;;;;6217126;23;20243;-77
2023/02/03 03:23:32;;;;;;;;;;;4.30;99.90;;;;;;6216879;23;20331;-77
2023/02/03 03:26:07;;;;;;;;;;;4.30;99.90;;;;;;6215285;23;20307;-76
2023/02/03 03:28:56;;;;;;;;;;;4.40;99.90;;;;;;6215166;23;19974;-77
2023/02/03 03:31:22;;;;;;;;;;;4.30;99.90;;;;;;6200753;23;19904;-77
2023/02/03 03:33:47;;;;;;;;;;;4.30;99.90;;;;;;6215062;23;20303;-77
2023/02/03 03:36:33;;;;;;;;;;;4.30;99.90;;;;;;6215195;23;19908;-77
2023/02/03 03:39:02;;;;;;;;;;;4.30;99.90;;;;;;6215757;23;19922;-77
2023/02/03 03:41:33;;;;;;;;;;;4.40;99.90;;;;;;6216674;23;20066;-77
2023/02/03 03:44:01;;;;;;;;;;;4.40;99.90;;;;;;6215365;23;19903;-77
2023/02/03 03:46:28;;;;;;;;;;;4.50;99.90;;;;;;6216723;23;19950;-77
2023/02/03 03:48:59;;;;;;;;;;;4.50;99.90;;;;;;6214881;23;19896;-77
2023/02/03 03:51:27;;;;;;;;;;;4.50;99.90;;;;;;6214987;23;19950;-77
2023/02/03 03:53:55;;;;;;;;;;;4.50;99.90;;;;;;6215314;23;19900;-77
2023/02/03 03:56:24;;;;;;;;;;;4.40;99.90;;;;;;6214799;23;19907;-77
2023/02/03 03:58:51;;;;;;;;;;;4.40;99.90;;;;;;6214917;23;19907;-77
2023/02/03 04:01:16;;;;;;;;;;;4.40;99.90;;;;;;6216379;23;20305;-77
2023/02/03 04:03:47;;;;;;;;;;;4.40;99.90;;;;;;6214703;23;19958;-77
2023/02/03 04:06:13;;;;;;;;;;;4.40;99.90;;;;;;6216434;23;20236;-76
2023/02/03 04:08:38;;;;;;;;;;;4.40;99.90;;;;;;6214822;23;19907;-76
2023/02/03 04:11:04;;;;;;;;;;;4.40;99.90;;;;;;6216487;23;20334;-77
2023/02/03 04:13:30;;;;;;;;;;;4.40;99.90;;;;;;6214442;23;20021;-76
2023/02/03 04:15:55;;;;;;;;;;;4.40;99.90;;;;;;6216423;23;19954;-76
2023/02/03 04:18:21;;;;;;;;;;;4.40;99.90;;;;;;6214590;23;19900;-76
2023/02/03 04:20:46;;;;;;;;;;;4.40;99.90;;;;;;6216237;23;19979;-77
2023/02/03 04:23:12;;;;;;;;;;;4.40;99.90;;;;;;6214751;23;19931;-77
2023/02/03 04:25:37;;;;;;;;;;;4.40;99.90;;;;;;6216462;23;19935;-77
2023/02/03 04:28:04;;;;;;;;;;;4.40;99.90;;;;;;6216294;23;19966;-77
2023/02/03 04:30:30;;;;;;;;;;;4.40;99.90;;;;;;6214699;23;19935;-77
2023/02/03 04:32:55;;;;;;;;;;;4.40;99.90;;;;;;6216114;23;19900;-77
2023/02/03 04:35:21;;;;;;;;;;;4.30;99.90;;;;;;6215690;23;19918;-77
2023/02/03 04:37:46;;;;;;;;;;;4.30;99.90;;;;;;6216173;23;19907;-77
2023/02/03 04:40:12;;;;;;;;;;;4.20;99.90;;;;;;6216090;23;19900;-77
2023/02/03 04:42:39;;;;;;;;;;;4.20;99.90;;;;;;6214428;23;19896;-77
2023/02/03 04:45:05;;;;;;;;;;;4.20;99.90;;;;;;6214520;23;19900;-77
2023/02/03 04:47:31;;;;;;;;;;;4.20;99.90;;;;;;6214410;23;19900;-77
2023/02/03 04:49:56;;;;;;;;;;;4.20;99.90;;;;;;6214584;23;19938;-77
2023/02/03 04:52:22;;;;;;;;;;;4.10;99.90;;;;;;6216044;23;19938;-77
2023/02/03 04:54:47;;;;;;;;;;;4.10;99.90;;;;;;6215868;23;19942;-77
2023/02/03 04:57:13;;;;;;;;;;;4.10;99.90;;;;;;6216252;23;20268;-77
2023/02/03 04:59:39;;;;;;;;;;;4.10;99.90;;;;;;6214320;23;20338;-77
2023/02/03 05:02:05;;;;;;;;;;;4.20;99.90;;;;;;6215957;23;19904;-77
2023/02/03 05:04:31;;;;;;;;;;;4.20;99.90;;;;;;6214003;23;19911;-77
2023/02/03 05:06:56;;;;;;;;;;;4.20;99.90;;;;;;6214374;23;19939;-77
2023/02/03 05:09:22;;;;;;;;;;;4.20;99.90;;;;;;6214433;23;19908;-77
2023/02/03 05:11:48;;;;;;;;;;;4.20;99.90;;;;;;6214397;23;19900;-77
2023/02/03 05:14:13;;;;;;;;;;;4.20;99.90;;;;;;6216079;23;20296;-77
2023/02/03 05:16:39;;;;;;;;;;;4.20;99.90;;;;;;6215986;23;19900;-77
2023/02/03 05:19:04;;;;;;;;;;;4.30;99.90;;;;;;6214210;23;19958;-77
2023/02/03 05:21:30;;;;;;;;;;;4.20;99.90;;;;;;6214095;23;19900;-77
2023/02/03 05:23:56;;;;;;;;;;;4.30;99.90;;;;;;6214317;23;19900;-77
2023/02/03 05:26:21;;;;;;;;;;;4.30;99.90;;;;;;6215823;23;19968;-77
2023/02/03 05:28:47;;;;;;;;;;;4.30;99.90;;;;;;6215923;23;19947;-77
2023/02/03 05:31:12;;;;;;;;;;;4.20;99.90;;;;;;6215160;23;19970;-76
2023/02/03 05:33:38;;;;;;;;;;;4.20;99.90;;;;;;6214762;23;20232;-76
2023/02/03 05:36:03;;;;;;;;;;;4.20;99.90;;;;;;6214047;23;19903;-77
2023/02/03 05:38:29;;;;;;;;;;;4.20;99.90;;;;;;6215540;23;20288;-77
2023/02/03 05:43:39;;;;;;;;;;;4.20;99.90;;;;;;6215588;23;19907;-77
2023/02/03 05:46:05;;;;;;;;;;;4.10;99.90;;;;;;6215109;23;19904;-77
2023/02/03 05:48:32;;;;;;;;;;;4.10;99.90;;;;;;6217735;23;19900;-76
2023/02/03 05:50:57;;;;;;;;;;;4.10;99.90;;;;;;6215852;23;20277;-77
2023/02/03 05:53:23;;;;;;;;;;;4.10;99.90;;;;;;6217460;23;19927;-77
2023/02/03 05:55:48;;;;;;;;;;;4.20;99.90;;;;;;6215756;23;19979;-77
2023/02/03 05:58:14;;;;;;;;;;;4.20;99.90;;;;;;6215747;23;19927;-77
2023/02/03 06:00:40;;;;;;;;;;;4.20;99.90;;;;;;6215931;23;19950;-77
2023/02/03 06:03:05;;;;;;;;;;;4.20;99.90;;;;;;6217305;23;19907;-77
2023/02/03 06:05:31;;;;;;;;;;;4.20;99.90;;;;;;6215459;23;19922;-77
2023/02/03 06:07:57;;;;;;;;;;;4.20;99.90;;;;;;6217342;23;20423;-77
2023/02/03 06:10:23;;;;;;;;;;;4.10;99.90;;;;;;6217533;23;19932;-77
2023/02/03 06:12:49;;;;;;;;;;;4.10;99.90;;;;;;6216120;23;20312;-77
2023/02/03 06:15:14;;;;;;;;;;;4.10;99.90;;;;;;6215700;23;19904;-76
2023/02/03 06:17:43;;;;;;;;;;;4.10;99.90;;;;;;6212941;23;19974;-77
2023/02/03 06:20:09;;;;;;;;;;;4.10;99.90;;;;;;6215349;23;19900;-76
2023/02/03 06:22:35;;;;;;;;;;;4.10;99.90;;;;;;6214161;23;20205;-77
2023/02/03 06:25:00;;;;;;;;;;;4.10;99.90;;;;;;6214207;23;20102;-81
2023/02/03 06:27:26;;;;;;;;;;;4.10;99.90;;;;;;6215935;23;19907;-82
2023/02/03 06:29:51;;;;;;;;;;;4.10;99.90;;;;;;6214193;23;19900;-81
2023/02/03 06:32:17;;;;;;;;;;;4.10;99.90;;;;;;6214035;23;19900;-82
2023/02/03 06:34:42;;;;;;;;;;;4.10;99.90;;;;;;6213759;23;19904;-82
2023/02/03 06:37:08;;;;;;;;;;;4.10;99.90;;;;;;6213169;23;19904;-81
2023/02/03 06:39:33;;;;;;;;;;;4.10;99.90;;;;;;6214623;23;19906;-82
2023/02/03 06:41:59;;;;;;;;;;;4.10;99.90;;;;;;6213692;23;19978;-82
2023/02/03 06:44:25;;;;;;;;;;;4.10;99.90;;;;;;6215669;23;19900;-81
2023/02/03 06:46:50;;;;;;;;;;;4.10;99.90;;;;;;6214162;23;19982;-82
2023/02/03 06:49:16;;;;;;;;;;;4.10;99.90;;;;;;6213842;23;19927;-82
2023/02/03 06:51:43;;;;;;;;;;;4.20;99.90;;;;;;6214037;23;20221;-82
2023/02/03 06:54:09;;;;;;;;;;;4.20;99.90;;;;;;6215626;23;20312;-81
2023/02/03 06:56:35;;;;;;;;;;;4.20;99.90;;;;;;6215247;23;19990;-81
2023/02/03 06:59:00;;;;;;;;;;;4.30;99.90;;;;;;6215470;23;20382;-81
2023/02/03 07:01:26;;;;;;;;;;;4.30;99.90;;;;;;6213941;23;19899;-81
2023/02/03 07:03:51;;;;;;;;;;;4.30;99.90;;;;;;6215125;23;19912;-82
2023/02/03 07:06:17;;;;;;;;;;;4.30;99.90;;;;;;6214853;23;20249;-81
2023/02/03 07:08:42;;;;;;;;;;;4.40;99.90;;;;;;6216679;23;20347;-82
2023/02/03 07:11:08;;;;;;;;;;;4.40;99.90;;;;;;6216967;23;20228;-81
2023/02/03 07:13:34;;;;;;;;;;;4.50;99.90;;;;;;6215394;23;20338;-82
2023/02/03 07:15:59;;;;;;;;;;;4.50;99.90;;;;;;6216874;23;19904;-82
2023/02/03 07:18:25;;;;;;;;;;;4.50;99.90;;;;;;6216753;23;19900;-82
2023/02/03 07:20:51;;;;;;;;;;;4.60;99.90;;;;;;6217045;23;19979;-82
2023/02/03 07:23:17;;;;;;;;;;;4.70;99.90;;;;;;6215142;23;19954;-82
2023/02/03 07:25:42;;;;;;;;;;;4.70;99.90;;;;;;6215299;23;19906;-81
2023/02/03 07:28:08;;;;;;;;;;;4.60;99.90;;;;;;6215281;23;20228;-82
2023/02/03 07:30:34;;;;;;;;;;;4.60;99.90;;;;;;6215215;23;19907;-82
2023/02/03 07:32:59;;;;;;;;;;;4.50;99.90;;;;;;6216601;23;19900;-82
2023/02/03 07:35:26;;;;;;;;;;;4.40;99.90;;;;;;6216636;23;19904;-82
2023/02/03 07:37:51;;;;;;;;;;;4.40;99.90;;;;;;6216692;23;19939;-81
2023/02/03 07:40:17;;;;;;;;;;;4.30;99.90;;;;;;6215025;23;19923;-82
2023/02/03 07:42:44;;;;;;;;;;;4.30;99.90;;;;;;6216716;23;19900;-82
2023/02/03 07:45:10;;;;;;;;;;;4.30;99.90;;;;;;6214968;23;19907;-82
2023/02/03 07:47:36;;;;;;;;;;;4.30;99.90;;;;;;6214997;23;20228;-82
2023/02/03 07:50:02;;;;;;;;;;;4.30;99.90;;;;;;6216671;23;19900;-82
2023/02/03 07:52:28;;;;;;;;;;;4.30;99.90;;;;;;6214903;23;20292;-82
2023/02/03 07:54:53;;;;;;;;;;;4.30;99.90;;;;;;6214888;23;19927;-81
2023/02/03 07:57:19;;;;;;;;;;;4.30;99.90;;;;;;6214927;23;20355;-82
2023/02/03 07:59:44;;;;;;;;;;;4.30;99.90;;;;;;6216537;23;19951;-82
2023/02/03 08:02:10;;;;;;;;;;;4.40;99.90;;;;;;6216443;23;19900;-82
2023/02/03 08:04:36;;;;;;;;;;;4.40;99.90;;;;;;6214325;23;19912;-82
2023/02/03 08:07:01;;;;;;;;;;;4.50;99.90;;;;;;6214870;23;20312;-82
2023/02/03 08:09:27;;;;;;;;;;;4.50;99.90;;;;;;6215972;23;19900;-82
2023/02/03 08:11:52;;;;;;;;;;;4.50;99.90;;;;;;6214786;23;19910;-82
2023/02/03 08:14:18;;;;;;;;;;;4.60;99.90;;;;;;6216259;23;19906;-82
2023/02/03 08:16:44;;;;;;;;;;;4.60;99.90;;;;;;6215906;23;19904;-82
2023/02/03 08:19:10;;;;;;;;;;;4.60;99.90;;;;;;6214689;23;20285;-82
2023/02/03 08:21:36;;;;;;;;;;;4.70;99.90;;;;;;6216185;23;19939;-82
2023/02/03 08:24:01;;;;;;;;;;;4.70;99.90;;;;;;6213740;23;19904;-76
2023/02/03 08:26:27;;;;;;;;;;;4.70;99.90;;;;;;6213187;23;20377;-77
2023/02/03 08:28:52;;;;;;;;;;;4.80;99.90;;;;;;6213074;23;19899;-77
2023/02/03 08:31:18;;;;;;;;;;;4.90;99.90;;;;;;6212839;23;20305;-77
2023/02/03 08:33:43;;;;;;;;;;;4.90;99.90;;;;;;6214318;23;19903;-77
2023/02/03 08:36:10;;;;;;;;;;;5.00;99.90;;;;;;6212221;23;20331;-77
2023/02/03 08:38:36;;;;;;;;;;;5.00;99.90;;;;;;6210717;23;19924;-77
2023/02/03 08:41:07;;;;;;;;;;;5.10;99.90;;;;;;6212435;23;19930;-76
2023/02/03 08:43:32;;;;;;;;;;;5.10;99.90;;;;;;6214565;23;19906;-77
2023/02/03 08:46:01;;;;;;;;;;;5.10;99.90;;;;;;6213114;23;19979;-77
2023/02/03 08:48:26;;;;;;;;;;;5.10;99.90;;;;;;6212561;23;19900;-77
2023/02/03 08:50:52;;;;;;;;;;;5.20;99.90;;;;;;6214531;23;19991;-77
2023/02/03 08:53:17;;;;;;;;;;;5.20;99.90;;;;;;6214640;23;20328;-77
2023/02/03 08:55:43;;;;;;;;;;;5.20;99.90;;;;;;6212776;23;20110;-77
2023/02/03 08:58:08;;;;;;;;;;;5.20;99.90;;;;;;6214523;23;19957;-76
2023/02/03 09:00:34;;;;;;;;;;;5.30;99.90;;;;;;6212900;23;20263;-77
2023/02/03 09:02:59;;;;;;;;;;;5.30;99.90;;;;;;6212564;23;20403;-77
2023/02/03 09:05:25;;;;;;;;;;;5.30;99.90;;;;;;6212775;23;20002;-77
2023/02/03 09:07:50;;;;;;;;;;;5.40;99.90;;;;;;6212695;23;19979;-77
2023/02/03 09:10:16;;;;;;;;;;;5.40;99.90;;;;;;6214533;23;19899;-77
2023/02/03 09:12:41;;;;;;;;;;;5.40;99.90;;;;;;6214178;23;19982;-77
2023/02/03 09:15:07;;;;;;;;;;;5.50;99.90;;;;;;6212779;23;19911;-76
2023/02/03 09:17:33;;;;;;;;;;;5.50;99.90;;;;;;6214275;23;20217;-77
2023/02/03 09:19:58;;;;;;;;;;;5.60;99.90;;;;;;6214014;23;19903;-77
2023/02/03 09:22:24;;;;;;;;;;;5.60;99.90;;;;;;6212831;23;19900;-77
2023/02/03 09:24:50;;;;;;;;;;;5.70;99.90;;;;;;6214200;23;19900;-77
2023/02/03 09:27:15;;;;;;;;;;;5.70;99.90;;;;;;6214395;23;19896;-77
2023/02/03 09:29:41;;;;;;;;;;;5.70;99.90;;;;;;6214235;23;19953;-77
2023/02/03 09:32:09;;;;;;;;;;;5.80;99.90;;;;;;6214200;23;19926;-77
2023/02/03 09:34:34;;;;;;;;;;;5.80;99.90;;;;;;6214051;23;19975;-77
2023/02/03 09:37:00;;;;;;;;;;;5.90;99.90;;;;;;6214060;23;19927;-77
2023/02/03 09:39:25;;;;;;;;;;;6.00;99.90;;;;;;6212607;23;19900;-77
2023/02/03 09:41:57;;;;;;;;;;;6.00;99.90;;;;;;6213827;23;20308;-77
2023/02/03 09:44:28;;;;;;;;;;;6.10;99.90;;;;;;6213763;23;19900;-77
2023/02/03 09:46:59;;;;;;;;;;;6.20;99.90;;;;;;6213980;23;19971;-77
2023/02/03 09:49:27;;;;;;;;;;;6.30;99.90;;;;;;6214091;23;19946;-77
2023/02/03 09:51:55;;;;;;;;;;;6.40;99.90;;;;;;6212339;23;19931;-77
2023/02/03 09:54:25;;;;;;;;;;;6.50;99.90;;;;;;6212731;23;20362;-77
2023/02/03 09:56:54;;;;;;;;;;;6.60;99.90;;;;;;6212598;23;19904;-77
2023/02/03 09:59:23;;;;;;;;;;;6.80;99.90;;;;;;6212397;23;20270;-77
2023/02/03 10:01:56;;;;;;;;;;;6.80;99.90;;;;;;6214148;23;19900;-76
2023/02/03 10:04:31;;;;;;;;;;;6.90;99.90;;;;;;6212390;23;19912;-77
2023/02/03 10:07:25;;;;;;;;;;;6.90;99.90;;;;;;6212647;23;19900;-77
2023/02/03 10:10:01;;;;;;;;;;;6.90;99.90;;;;;;6187734;23;19900;-77
2023/02/03 10:12:30;;;;;;;;;;;7.00;99.90;;;;;;6214014;23;20312;-77
2023/02/03 10:15:10;;;;;;;;;;;7.00;99.90;;;;;;6212471;23;19912;-77
2023/02/03 10:17:40;;;;;;;;;;;7.10;99.90;;;;;;6214265;23;20276;-77
2023/02/03 10:20:18;;;;;;;;;;;7.20;99.90;;;;;;6212362;23;20236;-77
2023/02/03 10:22:45;;;;;;;;;;;7.20;99.90;;;;;;6212416;23;20232;-77
2023/02/03 10:25:11;;;;;;;;;;;7.20;99.90;;;;;;6212387;23;19907;-77
2023/02/03 10:27:37;;;;;;;;;;;7.40;99.90;;;;;;6214087;23;19935;-77
2023/02/03 10:30:03;;;;;;;;;;;7.50;99.90;;;;;;6213935;23;19954;-77
2023/02/03 10:32:29;;;;;;;;;;;7.50;99.90;;;;;;6213008;23;19982;-77
2023/02/03 10:34:55;;;;;;;;;;;7.50;99.90;;;;;;6214057;23;19907;-77
2023/02/03 10:37:32;;;;;;;;;;;7.50;99.90;;;;;;6215828;23;19900;-77
2023/02/03 10:39:59;;;;;;;;;;;7.60;99.90;;;;;;6215861;23;19907;-77
2023/02/03 10:43:46;;;;;;;;;;;7.60;99.90;;;;;;6215662;23;19931;-77
2023/02/03 10:45:11;;;;;;;;;;;7.80;99.90;;;;;;6215581;23;19926;-77
2023/02/03 10:47:39;;;;;;;;;;;7.90;99.90;;;;;;6214059;23;20328;-82
2023/02/03 10:50:07;;;;;;;;;;;8.00;99.90;;;;;;6214099;23;19900;-83
2023/02/03 10:52:34;;;;;;;;;;;7.90;99.90;;;;;;6213697;23;19900;-83
2023/02/03 10:55:19;;;;;;;;;;;8.00;99.90;;;;;;6215626;23;19903;-82
2023/02/03 10:57:45;;;;;;;;;;;8.10;99.90;;;;;;6194430;23;19900;-82
2023/02/03 11:00:14;;;;;;;;;;;8.10;99.90;;;;;;6213916;23;19910;-82
2023/02/03 11:02:39;;;;;;;;;;;8.10;99.90;;;;;;6213947;23;20271;-82
2023/02/03 11:05:23;;;;;;;;;;;8.10;99.90;;;;;;6213672;23;19916;-82
2023/02/03 11:07:49;;;;;;;;;;;8.20;99.90;;;;;;6215680;23;20320;-82
2023/02/03 11:10:24;;;;;;;;;;;8.20;99.90;;;;;;6215366;23;19934;-82
2023/02/03 11:12:49;;;;;;;;;;;8.30;99.90;;;;;;6215388;23;20308;-82
2023/02/03 11:15:15;;;;;;;;;;;8.40;99.90;;;;;;6215382;23;19910;-82
2023/02/03 11:17:42;;;;;;;;;;;8.40;99.90;;;;;;6213926;23;19900;-82
2023/02/03 11:20:13;;;;;;;;;;;8.40;99.90;;;;;;6215389;23;19911;-82
2023/02/03 11:22:39;;;;;;;;;;;8.40;99.90;;;;;;6215124;23;20286;-82
2023/02/03 11:25:16;;;;;;;;;;;8.40;99.90;;;;;;6215441;23;19907;-82
2023/02/03 11:27:42;;;;;;;;;;;8.50;99.90;;;;;;6215505;23;19908;-82
2023/02/03 11:30:14;;;;;;;;;;;8.50;99.90;;;;;;6215232;23;19940;-82
2023/02/03 11:32:41;;;;;;;;;;;8.50;99.90;;;;;;6215188;23;20278;-82
2023/02/03 11:35:26;;;;;;;;;;;8.50;99.90;;;;;;6215228;23;19904;-82
2023/02/03 11:37:55;;;;;;;;;;;8.50;99.90;;;;;;6215112;23;19901;-82
2023/02/03 11:40:26;;;;;;;;;;;8.50;99.90;;;;;;6215469;23;19900;-82
2023/02/03 11:42:51;;;;;;;;;;;8.60;99.90;;;;;;6215158;23;20267;-82
2023/02/03 11:45:17;;;;;;;;;;;8.60;99.90;;;;;;6213650;23;19906;-82
2023/02/03 11:47:43;;;;;;;;;;;8.60;99.90;;;;;;6214940;23;19900;-82
2023/02/03 11:50:28;;;;;;;;;;;8.70;99.90;;;;;;6215177;23;19900;-82
2023/02/03 11:53:04;;;;;;;;;;;8.70;99.90;;;;;;6213554;23;19904;-82
2023/02/03 11:55:45;;;;;;;;;;;8.80;99.90;;;;;;6214925;23;20374;-83
2023/02/03 11:58:39;;;;;;;;;;;8.80;99.90;;;;;;6213283;23;19908;-82
2023/02/03 12:01:05;;;;;;;;;;;8.80;99.90;;;;;;6212787;23;19978;-82
2023/02/03 12:03:36;;;;;;;;;;;8.80;99.90;;;;;;6214852;23;19951;-82
2023/02/03 12:06:26;;;;;;;;;;;8.90;99.90;;;;;;6215019;23;19949;-83
2023/02/03 12:09:10;;;;;;;;;;;9.00;99.90;;;;;;6213373;23;19987;-82
2023/02/03 12:11:58;;;;;;;;;;;9.00;99.90;;;;;;6214817;23;19906;-82
2023/02/03 12:14:38;;;;;;;;;;;9.10;99.90;;;;;;6212950;23;19900;-82
2023/02/03 12:17:27;;;;;;;;;;;9.10;99.90;;;;;;6214678;23;20255;-82
2023/02/03 12:19:53;;;;;;;;;;;9.10;99.90;;;;;;6213002;23;19987;-82
2023/02/03 12:22:25;;;;;;;;;;;9.10;99.90;;;;;;6214825;23;20300;-82
2023/02/03 12:24:52;;;;;;;;;;;9.10;99.90;;;;;;6214740;23;19900;-82
2023/02/03 12:27:17;;;;;;;;;;;9.20;99.90;;;;;;6214996;23;20240;-81
2023/02/03 12:29:46;;;;;;;;;;;9.10;99.90;;;;;;6214675;23;19904;-82
2023/02/03 12:32:24;;;;;;;;;;;9.20;99.90;;;;;;6213075;23;19900;-82
2023/02/03 12:34:52;;;;;;;;;;;9.20;99.90;;;;;;6214502;23;19910;-82
2023/02/03 12:37:18;;;;;;;;;;;9.20;99.90;;;;;;6214722;23;19900;-82
2023/02/03 12:39:54;;;;;;;;;;;9.20;99.90;;;;;;6213073;23;19900;-82
2023/02/03 12:42:27;;;;;;;;;;;9.20;99.90;;;;;;6214436;23;19900;-82
2023/02/03 12:45:01;;;;;;;;;;;9.30;99.90;;;;;;6214640;23;20236;-81
2023/02/03 12:47:30;;;;;;;;;;;9.30;99.90;;;;;;6213041;23;19911;-82
2023/02/03 12:50:12;;;;;;;;;;;9.40;99.90;;;;;;6214639;23;19896;-82
2023/02/03 12:52:41;;;;;;;;;;;9.40;99.90;;;;;;6214567;23;20235;-82
2023/02/03 12:55:21;;;;;;;;;;;9.40;99.90;;;;;;6214451;23;19907;-82
2023/02/03 12:57:53;;;;;;;;;;;9.40;99.90;;;;;;6214456;23;20312;-82
2023/02/03 13:00:19;;;;;;;;;;;9.40;99.90;;;;;;6212876;23;19929;-82
2023/02/03 13:02:56;;;;;;;;;;;9.40;99.90;;;;;;6214288;23;20403;-82
2023/02/03 13:05:42;;;;;;;;;;;9.40;99.90;;;;;;6214213;23;19991;-82
2023/02/03 13:08:20;;;;;;;;;;;9.50;99.90;;;;;;6137942;23;19936;-82
2023/02/03 13:10:49;;;;;;;;;;;9.50;99.90;;;;;;6212734;23;19900;-82
2023/02/03 13:13:17;;;;;;;;;;;9.50;99.90;;;;;;6214262;23;19911;-82
2023/02/03 13:15:44;;;;;;;;;;;9.50;99.90;;;;;;6214488;23;19910;-83
2023/02/03 13:18:26;;;;;;;;;;;9.50;99.90;;;;;;6214163;23;19900;-82
2023/02/03 13:20:53;;;;;;;;;;;9.50;99.90;;;;;;6212695;23;20324;-82
2023/02/03 13:23:19;;;;;;;;;;;9.50;99.90;;;;;;6214554;23;19934;-82
2023/02/03 13:25:54;;;;;;;;;;;9.50;99.90;;;;;;6214562;23;19900;-82
2023/02/03 13:28:39;;;;;;;;;;;9.50;99.90;;;;;;6214534;23;19982;-82
2023/02/03 13:31:05;;;;;;;;;;;9.50;99.90;;;;;;6211776;23;19904;-82
2023/02/03 13:33:46;;;;;;;;;;;9.50;99.90;;;;;;6212666;23;19907;-82
2023/02/03 13:36:26;;;;;;;;;;;9.50;99.90;;;;;;6212529;23;19907;-82
2023/02/03 13:38:55;;;;;;;;;;;9.50;99.90;;;;;;6214389;23;19904;-82
2023/02/03 13:41:27;;;;;;;;;;;9.50;99.90;;;;;;6214247;23;19903;-82
2023/02/03 13:43:53;;;;;;;;;;;9.50;99.90;;;;;;6214402;23;19958;-82
2023/02/03 13:46:31;;;;;;;;;;;9.50;99.90;;;;;;6214386;23;19900;-82
2023/02/03 13:48:58;;;;;;;;;;;9.50;99.90;;;;;;6214251;23;19900;-82
2023/02/03 13:51:35;;;;;;;;;;;9.50;99.90;;;;;;6212665;23;19950;-82
2023/02/03 13:54:03;;;;;;;;;;;9.40;99.90;;;;;;6214326;23;19900;-82
2023/02/03 13:56:29;;;;;;;;;;;9.40;99.90;;;;;;6214400;23;19908;-82
2023/02/03 13:59:01;;;;;;;;;;;9.40;99.90;;;;;;6214615;23;19955;-82
2023/02/03 14:01:37;;;;;;;;;;;9.40;99.90;;;;;;6213242;23;19900;-82
2023/02/03 14:04:04;;;;;;;;;;;9.40;99.90;;;;;;6214104;23;19912;-82
2023/02/03 14:06:32;;;;;;;;;;;9.40;99.90;;;;;;6214349;23;20343;-82
2023/02/03 14:08:58;;;;;;;;;;;9.40;99.90;;;;;;6216338;23;19904;-82
2023/02/03 14:11:30;;;;;;;;;;;9.40;99.90;;;;;;6214575;23;19900;-82
2023/02/03 14:14:08;;;;;;;;;;;9.40;99.90;;;;;;6216222;23;19983;-82
2023/02/03 14:16:54;;;;;;;;;;;9.40;99.90;;;;;;6216155;23;20381;-82
2023/02/03 14:19:20;;;;;;;;;;;9.40;99.90;;;;;;6216598;23;20364;-82
2023/02/03 14:21:48;;;;;;;;;;;9.30;99.90;;;;;;6215027;23;19985;-82
2023/02/03 14:24:14;;;;;;;;;;;9.30;99.90;;;;;;6216166;23;19907;-82
2023/02/03 14:26:42;;;;;;;;;;;9.30;99.90;;;;;;6216712;23;19983;-82
2023/02/03 14:29:09;;;;;;;;;;;9.30;99.90;;;;;;6215360;23;19987;-82
2023/02/03 14:31:51;;;;;;;;;;;9.20;99.90;;;;;;6215404;23;19934;-82
2023/02/03 14:34:17;;;;;;;;;;;9.20;99.90;;;;;;6216771;23;20293;-82
2023/02/03 14:36:47;;;;;;;;;;;9.20;99.90;;;;;;6216707;23;19904;-82
2023/02/03 14:39:15;;;;;;;;;;;9.20;99.90;;;;;;6216927;23;19981;-82
2023/02/03 14:41:49;;;;;;;;;;;9.20;99.90;;;;;;6214630;23;19900;-82